createdAt,value
2022-11-23T00:00:23.485Z,2.90
2022-11-23T00:04:25.272Z,2.80
2022-11-23T00:08:26.354Z,2.13
2022-11-23T00:12:27.511Z,2.97
2022-11-23T00:16:30.181Z,2.60
2022-11-23T00:20:31.247Z,2.40
2022-11-23T00:24:32.455Z,2.80
2022-11-23T00:28:38.913Z,2.77
2022-11-23T00:32:40.031Z,3.17
2022-11-23T00:36:41.109Z,2.67
2022-11-23T00:40:42.270Z,2.50
2022-11-23T00:44:43.540Z,2.30
2022-11-23T00:48:46.991Z,2.60
2022-11-23T00:52:48.059Z,2.63
2022-11-23T00:56:49.208Z,2.00
2022-11-23T01:00:50.272Z,2.53
2022-11-23T01:04:51.327Z,2.90
2022-11-23T01:08:55.089Z,2.70
2022-11-23T01:12:56.377Z,2.37
2022-11-23T01:16:57.443Z,2.93
2022-11-23T01:21:00.803Z,3.37
2022-11-23T01:25:01.871Z,2.20
2022-11-23T01:29:03.329Z,2.63
2022-11-23T01:33:04.707Z,2.17
2022-11-23T01:37:05.856Z,2.60
2022-11-23T01:41:08.958Z,2.10
2022-11-23T01:45:34.138Z,3.30
2022-11-23T01:49:44.645Z,2.93
2022-11-23T01:53:48.097Z,2.87
2022-11-23T01:57:49.266Z,2.33
2022-11-23T02:01:50.331Z,2.30
2022-11-23T02:05:57.126Z,2.50
2022-11-23T02:09:58.685Z,2.80
2022-11-23T02:14:00.049Z,2.40
2022-11-23T02:18:04.510Z,2.70
2022-11-23T02:22:09.409Z,2.80
2022-11-23T02:26:23.370Z,2.83
2022-11-23T02:30:24.656Z,2.47
2022-11-23T02:34:26.105Z,3.60
2022-11-23T02:38:30.790Z,2.43
2022-11-23T02:42:32.658Z,2.30
2022-11-23T02:46:33.827Z,2.53
2022-11-23T02:50:34.997Z,2.40
2022-11-23T02:54:36.257Z,3.03
2022-11-23T02:58:37.329Z,3.60
2022-11-23T03:02:38.409Z,3.40
2022-11-23T03:06:39.692Z,3.30
2022-11-23T03:10:40.880Z,2.37
2022-11-23T03:14:42.035Z,3.00
2022-11-23T03:18:43.193Z,2.97
2022-11-23T03:22:44.251Z,2.43
2022-11-23T03:26:45.319Z,2.33
2022-11-23T03:30:46.396Z,2.50
2022-11-23T03:34:47.541Z,2.80
2022-11-23T03:38:48.638Z,3.43
2022-11-23T03:42:50.255Z,2.50
2022-11-23T03:46:51.545Z,2.60
2022-11-23T03:50:52.721Z,2.60
2022-11-23T03:54:53.795Z,2.37
2022-11-23T03:58:54.846Z,2.30
2022-11-23T04:02:55.916Z,3.70
2022-11-23T04:06:56.977Z,3.30
2022-11-23T04:10:58.765Z,2.70
2022-11-23T04:14:59.949Z,3.10
2022-11-23T04:19:01.131Z,2.60
2022-11-23T04:23:02.215Z,2.77
2022-11-23T04:27:03.300Z,2.93
2022-11-23T04:31:04.697Z,2.73
2022-11-23T04:35:06.092Z,3.20
2022-11-23T04:39:07.249Z,2.73
2022-11-23T04:43:08.971Z,2.63
2022-11-23T04:47:10.934Z,3.57
2022-11-23T04:51:12.240Z,3.37
2022-11-23T04:55:13.325Z,3.00
2022-11-23T04:59:14.430Z,3.13
2022-11-23T05:03:15.910Z,3.10
2022-11-23T05:07:17.021Z,3.77
2022-11-23T05:11:19.161Z,2.67
2022-11-23T05:15:20.250Z,2.80
2022-11-23T05:19:21.336Z,2.70
2022-11-23T05:23:22.487Z,3.17
2022-11-23T05:27:23.541Z,2.83
2022-11-23T05:31:24.612Z,2.90
2022-11-23T05:35:25.685Z,2.30
2022-11-23T05:39:26.868Z,2.40
2022-11-23T05:43:28.029Z,3.80
2022-11-23T05:47:29.115Z,2.60
2022-11-23T05:51:31.398Z,2.53
2022-11-23T05:55:32.507Z,3.00
2022-11-23T05:59:34.236Z,2.47
2022-11-23T06:03:35.872Z,2.57
2022-11-23T06:07:37.223Z,2.93
2022-11-23T06:11:38.459Z,2.60
2022-11-23T06:15:39.617Z,3.10
2022-11-23T06:19:40.701Z,3.23
2022-11-23T06:23:41.874Z,2.30
2022-11-23T06:27:43.048Z,2.93
2022-11-23T06:31:44.516Z,2.70
2022-11-23T06:35:53.635Z,2.63
2022-11-23T06:39:54.759Z,2.50
2022-11-23T06:43:55.966Z,4.00
2022-11-23T06:47:57.117Z,3.53
2022-11-23T06:51:58.159Z,3.60
2022-11-23T06:55:59.942Z,3.23
2022-11-23T07:00:01.269Z,2.60
2022-11-23T07:04:02.436Z,3.07
2022-11-23T07:08:04.318Z,3.30
2022-11-23T07:12:05.716Z,4.03
2022-11-23T07:16:07.106Z,3.30
2022-11-23T07:20:10.694Z,3.17
2022-11-23T07:24:11.884Z,3.10
2022-11-23T07:28:13.769Z,2.60
2022-11-23T07:32:14.941Z,2.90
2022-11-23T07:36:16.043Z,3.20
2022-11-23T07:40:18.157Z,3.20
2022-11-23T07:44:19.226Z,10.07
2022-11-23T07:48:21.523Z,6.53
2022-11-23T07:52:22.808Z,2.87
2022-11-23T07:56:24.085Z,3.43
2022-11-23T08:00:27.171Z,2.73
2022-11-23T08:04:29.439Z,3.33
2022-11-23T08:08:34.647Z,2.60
2022-11-23T08:12:35.921Z,2.67
2022-11-23T08:16:37.115Z,3.13
2022-11-23T08:20:38.209Z,2.90
2022-11-23T08:24:39.275Z,2.40
2022-11-23T08:28:40.437Z,2.60
2022-11-23T08:32:41.528Z,2.30
2022-11-23T08:36:42.710Z,2.30
2022-11-23T08:40:43.962Z,2.63
2022-11-23T08:44:45.131Z,2.20
2022-11-23T08:48:46.291Z,2.30
2022-11-23T08:52:47.483Z,2.23
2022-11-23T08:56:48.699Z,3.40
2022-11-23T09:00:49.853Z,2.80
2022-11-23T09:04:51.144Z,2.60
2022-11-23T09:08:52.310Z,1.97
2022-11-23T09:12:53.507Z,2.53
2022-11-23T09:16:54.648Z,3.00
2022-11-23T09:20:56.524Z,2.67
2022-11-23T09:24:57.608Z,2.10
2022-11-23T09:28:59.060Z,3.40
2022-11-23T09:33:00.157Z,2.23
2022-11-23T09:37:01.513Z,2.17
2022-11-23T09:41:35.489Z,2.53
2022-11-23T09:45:45.995Z,2.03
2022-11-23T09:50:08.845Z,2.20
2022-11-23T09:54:31.816Z,3.30
2022-11-23T09:58:37.073Z,2.23
2022-11-23T10:02:40.460Z,2.50
2022-11-23T10:06:43.115Z,2.60
2022-11-23T10:10:47.192Z,2.60
2022-11-23T10:15:18.476Z,1.93
2022-11-23T10:19:38.509Z,2.43
2022-11-23T10:23:58.278Z,2.23
2022-11-23T10:28:03.149Z,1.97
2022-11-23T10:32:13.520Z,2.10
2022-11-23T10:36:15.769Z,2.40
2022-11-23T10:40:27.338Z,1.90
2022-11-23T10:44:32.699Z,2.50
2022-11-23T10:48:36.236Z,2.13
2022-11-23T10:52:37.455Z,3.10
2022-11-23T10:56:42.447Z,1.80
2022-11-23T11:00:43.666Z,2.20
2022-11-23T11:04:46.732Z,16.33
2022-11-23T11:08:51.701Z,1.87
2022-11-23T11:12:52.948Z,2.93
2022-11-23T11:16:57.217Z,2.30
2022-11-23T11:21:19.320Z,2.43
2022-11-23T11:25:38.406Z,1.50
2022-11-23T11:29:46.135Z,2.03
2022-11-23T11:33:56.802Z,2.13
2022-11-23T11:38:20.369Z,2.07
2022-11-23T11:42:25.321Z,1.87
2022-11-23T11:46:39.327Z,2.13
2022-11-23T11:51:02.174Z,2.20
2022-11-23T11:55:22.420Z,2.00
2022-11-23T11:59:30.733Z,2.00
2022-11-23T12:03:50.985Z,1.87
2022-11-23T12:08:14.451Z,1.70
2022-11-23T12:12:18.068Z,2.03
2022-11-23T12:16:23.234Z,1.47
2022-11-23T12:20:46.032Z,1.53
2022-11-23T12:25:09.899Z,1.50
2022-11-23T12:29:36.311Z,1.63
2022-11-23T12:33:55.950Z,1.10
2022-11-23T12:38:12.577Z,1.20
2022-11-23T12:42:32.228Z,1.23
2022-11-23T12:46:49.360Z,1.77
2022-11-23T12:51:09.674Z,1.60
2022-11-23T12:55:39.003Z,2.13
2022-11-23T12:59:50.117Z,1.53
2022-11-23T13:04:15.100Z,1.80
2022-11-23T13:08:56.235Z,1.63
2022-11-23T13:13:28.419Z,1.33
2022-11-23T13:17:36.096Z,1.73
2022-11-23T13:21:41.085Z,1.77
2022-11-23T13:25:42.355Z,1.40
2022-11-23T13:29:50.677Z,2.63
2022-11-23T13:34:00.132Z,1.50
2022-11-23T13:38:17.383Z,1.90
2022-11-23T13:42:19.370Z,1.67
2022-11-23T13:46:24.173Z,1.50
2022-11-23T13:50:25.502Z,1.77
2022-11-23T13:54:26.714Z,1.30
2022-11-23T13:58:31.659Z,1.50
2022-11-23T14:02:32.900Z,1.53
2022-11-23T14:06:47.417Z,1.27
2022-11-23T14:10:49.486Z,1.70
2022-11-23T14:14:57.385Z,1.27
2022-11-23T14:19:36.121Z,1.40
2022-11-23T14:23:43.950Z,1.90
2022-11-23T14:28:11.073Z,1.53
2022-11-23T14:32:21.844Z,1.80
2022-11-23T14:36:26.721Z,1.53
2022-11-23T14:40:48.693Z,1.60
2022-11-23T14:44:50.448Z,1.90
2022-11-23T14:48:53.832Z,1.90
2022-11-23T14:52:57.917Z,3.83
2022-11-23T14:57:02.395Z,1.80
2022-11-23T15:01:04.136Z,1.77
2022-11-23T15:05:23.343Z,2.00
2022-11-23T15:10:00.648Z,1.80
2022-11-23T15:14:02.040Z,2.80
2022-11-23T15:18:03.225Z,2.37
2022-11-23T15:22:04.386Z,1.80
2022-11-23T15:26:42.026Z,2.43
2022-11-23T15:30:28.161Z,1.90
2022-11-23T15:34:29.623Z,2.50
2022-11-23T15:38:31.612Z,2.10
2022-11-23T15:42:32.901Z,2.80
2022-11-23T15:46:36.538Z,2.17
2022-11-23T15:50:55.665Z,2.33
2022-11-23T15:55:03.281Z,2.23
2022-11-23T15:59:32.020Z,2.73
2022-11-23T16:03:37.025Z,1.97
2022-11-23T16:07:58.614Z,2.13
2022-11-23T16:11:59.705Z,2.40
2022-11-23T16:16:03.657Z,2.30
2022-11-23T16:20:08.655Z,2.40
2022-11-23T16:24:16.252Z,2.83
2022-11-23T16:28:21.289Z,1.90
2022-11-23T16:32:28.233Z,2.37
2022-11-23T16:36:29.387Z,2.00
2022-11-23T16:40:31.343Z,2.40
2022-11-23T16:44:36.139Z,2.00
2022-11-23T16:48:41.253Z,2.40
2022-11-23T16:52:43.540Z,1.60
2022-11-23T16:56:45.589Z,2.43
2022-11-23T17:00:48.486Z,2.17
2022-11-23T17:04:49.710Z,2.70
2022-11-23T17:08:59.241Z,3.80
2022-11-23T17:12:55.907Z,2.93
2022-11-23T17:17:01.608Z,2.10
2022-11-23T17:21:03.209Z,2.40
2022-11-23T17:25:10.222Z,2.70
2022-11-23T17:29:17.114Z,2.50
2022-11-23T17:33:18.384Z,2.53
2022-11-23T17:37:23.006Z,2.90
2022-11-23T17:41:24.295Z,3.07
2022-11-23T17:45:25.376Z,2.60
2022-11-23T17:49:27.558Z,3.20
2022-11-23T17:53:28.734Z,2.73
2022-11-23T17:57:29.824Z,2.70
2022-11-23T18:01:31.507Z,4.87
2022-11-23T18:05:32.856Z,2.90
2022-11-23T18:09:34.390Z,2.50
2022-11-23T18:13:36.753Z,2.90
2022-11-23T18:17:37.972Z,3.13
2022-11-23T18:21:39.167Z,2.70
2022-11-23T18:25:40.264Z,4.40
2022-11-23T18:29:41.459Z,3.23
2022-11-23T18:33:42.813Z,3.90
2022-11-23T18:37:44.004Z,3.87
2022-11-23T18:41:45.880Z,4.03
2022-11-23T18:45:47.557Z,3.30
2022-11-23T18:49:48.942Z,3.23
2022-11-23T18:53:50.697Z,5.70
2022-11-23T18:57:55.531Z,6.63
2022-11-23T19:01:56.623Z,8.10
2022-11-23T19:06:03.236Z,8.10
2022-11-23T19:10:04.696Z,3.00
2022-11-23T19:14:05.784Z,2.90
2022-11-23T19:18:07.026Z,3.07
2022-11-23T19:22:08.640Z,3.23
2022-11-23T19:26:09.918Z,5.93
2022-11-23T19:30:13.333Z,7.17
2022-11-23T19:34:14.503Z,6.27
2022-11-23T19:38:17.120Z,5.03
2022-11-23T19:42:18.386Z,3.60
2022-11-23T19:46:19.827Z,4.93
2022-11-23T19:50:20.967Z,4.20
2022-11-23T19:54:22.539Z,4.77
2022-11-23T19:58:23.693Z,5.00
2022-11-23T20:02:25.304Z,6.07
2022-11-23T20:06:28.794Z,4.00
2022-11-23T20:10:29.885Z,4.57
2022-11-23T20:14:31.033Z,4.30
2022-11-23T20:18:32.239Z,4.73
2022-11-23T20:22:33.411Z,5.00
2022-11-23T20:26:35.787Z,5.43
2022-11-23T20:30:36.869Z,5.40
2022-11-23T20:34:38.043Z,5.80
2022-11-23T20:38:39.618Z,6.60
2022-11-23T20:42:40.671Z,5.43
2022-11-23T20:50:45.255Z,5.63
2022-11-23T20:54:46.521Z,5.93
2022-11-23T20:58:50.190Z,5.30
2022-11-23T21:02:52.440Z,6.13
2022-11-23T21:06:54.013Z,5.50
2022-11-23T21:11:13.508Z,6.20
2022-11-23T21:15:14.821Z,6.90
2022-11-23T21:19:15.912Z,5.70
2022-11-23T21:23:16.962Z,6.00
2022-11-23T21:27:20.374Z,5.73
2022-11-23T21:31:21.991Z,6.47
2022-11-23T21:35:23.123Z,5.80
2022-11-23T21:39:24.583Z,4.87
2022-11-23T21:43:25.764Z,5.43
2022-11-23T21:47:28.220Z,5.70
2022-11-23T21:51:30.771Z,6.20
2022-11-23T21:55:32.076Z,5.70
2022-11-23T21:59:33.324Z,5.73
2022-11-23T22:03:43.964Z,5.37
2022-11-23T22:08:00.362Z,5.60
2022-11-23T22:11:48.831Z,5.53
2022-11-23T22:15:50.018Z,6.17
2022-11-23T22:19:51.365Z,6.00
2022-11-23T22:23:52.973Z,5.50
2022-11-23T22:27:54.149Z,5.43
2022-11-23T22:31:55.260Z,4.90
2022-11-23T22:36:05.617Z,5.10
2022-11-23T22:40:07.891Z,5.27
2022-11-23T22:44:10.601Z,4.50
2022-11-23T22:48:11.863Z,6.00
2022-11-23T22:52:12.967Z,4.97
2022-11-23T22:56:16.148Z,4.50
2022-11-23T23:00:17.609Z,4.17
2022-11-23T23:04:18.705Z,4.40
2022-11-23T23:08:19.848Z,4.80
2022-11-23T23:12:21.078Z,3.83
2022-11-23T23:16:22.584Z,4.73
2022-11-23T23:20:23.824Z,4.70
2022-11-23T23:24:24.888Z,4.33
2022-11-23T23:28:25.949Z,4.53
2022-11-23T23:32:27.022Z,4.60
2022-11-23T23:36:29.133Z,5.10
2022-11-23T23:40:30.290Z,4.10
2022-11-23T23:44:31.835Z,4.63
2022-11-23T23:48:35.757Z,4.00
2022-11-23T23:52:37.350Z,3.93
2022-11-23T23:56:38.526Z,3.87
